createdAt,value
2023-04-02T00:01:17.219Z,8.70
2023-04-02T00:03:44.554Z,8.57
2023-04-02T00:06:32.673Z,7.00
2023-04-02T00:09:21.848Z,9.27
2023-04-02T00:11:54.703Z,11.05
2023-04-02T00:17:20.526Z,8.93
2023-04-02T00:20:07.185Z,8.70
2023-04-02T00:22:34.644Z,11.95
2023-04-02T00:25:12.360Z,10.40
2023-04-02T00:27:40.236Z,11.35
2023-04-02T00:30:08.854Z,9.45
2023-04-02T00:32:37.062Z,8.80
2023-04-02T00:35:11.337Z,13.65
2023-04-02T00:37:39.424Z,10.57
2023-04-02T00:40:24.227Z,13.13
2023-04-02T00:42:58.844Z,10.88
2023-04-02T00:45:33.245Z,11.40
2023-04-02T00:48:31.820Z,10.90
2023-04-02T00:51:41.774Z,9.82
2023-04-02T00:54:16.195Z,5.60
2023-04-02T00:56:46.709Z,5.03
2023-04-02T00:59:48.969Z,2.45
2023-04-02T01:02:18.955Z,2.92
2023-04-02T01:05:15.037Z,2.45
2023-04-02T01:08:08.409Z,3.25
2023-04-02T01:10:59.662Z,2.50
2023-04-02T01:13:51.361Z,3.50
2023-04-02T01:16:29.353Z,3.08
2023-04-02T01:19:29.570Z,2.85
2023-04-02T01:22:14.043Z,3.97
2023-04-02T01:24:44.054Z,4.57
2023-04-02T01:27:33.051Z,3.00
2023-04-02T01:30:07.313Z,3.35
2023-04-02T01:32:35.862Z,4.00
2023-04-02T01:35:03.713Z,8.85
2023-04-02T01:37:45.004Z,3.63
2023-04-02T01:40:47.168Z,2.20
2023-04-02T01:43:17.492Z,2.95
2023-04-02T01:45:44.723Z,4.15
2023-04-02T01:48:19.788Z,4.30
2023-04-02T01:50:51.263Z,3.38
2023-04-02T01:53:21.053Z,2.08
2023-04-02T01:55:55.120Z,2.58
2023-04-02T01:58:25.583Z,2.40
2023-04-02T02:01:14.040Z,2.28
2023-04-02T02:03:44.467Z,2.63
2023-04-02T02:06:14.785Z,2.50
2023-04-02T02:08:49.670Z,2.78
2023-04-02T02:11:22.144Z,3.15
2023-04-02T02:13:58.795Z,3.03
2023-04-02T02:16:28.687Z,3.58
2023-04-02T02:19:05.410Z,2.78
2023-04-02T02:21:41.392Z,2.40
2023-04-02T02:24:31.833Z,2.58
2023-04-02T02:27:04.859Z,2.88
2023-04-02T02:29:37.659Z,2.10
2023-04-02T02:32:07.772Z,2.20
2023-04-02T02:34:41.618Z,2.75
2023-04-02T02:37:22.433Z,2.92
2023-04-02T02:39:54.952Z,3.63
2023-04-02T02:42:31.710Z,2.10
2023-04-02T02:45:02.348Z,3.45
2023-04-02T02:47:32.278Z,2.45
2023-04-02T02:50:06.600Z,5.05
2023-04-02T02:52:38.477Z,2.97
2023-04-02T02:55:15.897Z,2.35
2023-04-02T02:58:00.663Z,1.77
2023-04-02T03:00:33.687Z,3.88
2023-04-02T03:03:05.266Z,2.83
2023-04-02T03:05:33.706Z,2.20
2023-04-02T03:08:18.640Z,2.15
2023-04-02T03:10:54.435Z,3.33
2023-04-02T03:13:36.862Z,2.15
2023-04-02T03:16:31.159Z,2.33
2023-04-02T03:19:04.848Z,1.85
2023-04-02T03:21:49.138Z,3.23
2023-04-02T03:24:29.656Z,2.53
2023-04-02T03:27:15.420Z,2.85
2023-04-02T03:29:53.538Z,3.20
2023-04-02T03:32:29.690Z,4.20
2023-04-02T03:35:01.534Z,3.97
2023-04-02T03:37:47.061Z,3.03
2023-04-02T03:40:26.552Z,3.50
2023-04-02T03:43:12.642Z,3.47
2023-04-02T03:45:43.871Z,3.88
2023-04-02T03:48:20.928Z,4.67
2023-04-02T03:51:02.873Z,3.47
2023-04-02T03:53:32.430Z,2.27
2023-04-02T03:56:01.676Z,4.77
2023-04-02T03:58:40.547Z,3.97
2023-04-02T04:01:20.272Z,3.80
2023-04-02T04:03:52.704Z,4.67
2023-04-02T04:06:28.785Z,3.92
2023-04-02T04:09:06.328Z,4.82
2023-04-02T04:11:43.875Z,4.33
2023-04-02T04:14:26.862Z,4.27
2023-04-02T04:17:04.770Z,4.17
2023-04-02T04:19:59.518Z,4.37
2023-04-02T04:22:33.522Z,3.63
2023-04-02T04:25:40.163Z,4.40
2023-04-02T04:28:26.561Z,6.87
2023-04-02T04:31:25.248Z,4.23
2023-04-02T04:34:04.322Z,7.03
2023-04-02T04:36:47.833Z,3.60
2023-04-02T04:39:48.906Z,5.10
2023-04-02T04:42:29.371Z,4.13
2023-04-02T04:45:03.140Z,4.13
2023-04-02T04:47:41.959Z,4.17
2023-04-02T04:50:28.944Z,4.20
2023-04-02T04:52:56.818Z,5.53
2023-04-02T04:55:39.696Z,3.90
2023-04-02T04:58:25.934Z,4.47
2023-04-02T05:01:24.178Z,3.80
2023-04-02T05:04:04.422Z,4.47
2023-04-02T05:06:57.745Z,3.57
2023-04-02T05:09:31.418Z,5.00
2023-04-02T05:12:06.086Z,4.90
2023-04-02T05:14:40.073Z,4.37
2023-04-02T05:17:23.291Z,3.30
2023-04-02T05:20:00.409Z,4.97
2023-04-02T05:22:48.929Z,3.93
2023-04-02T05:25:26.223Z,5.53
2023-04-02T05:28:04.116Z,3.73
2023-04-02T05:30:38.481Z,4.53
2023-04-02T05:33:22.231Z,3.67
2023-04-02T05:36:12.736Z,5.60
2023-04-02T05:38:47.580Z,4.23
2023-04-02T05:41:39.378Z,6.90
2023-04-02T05:44:21.803Z,5.10
2023-04-02T05:47:03.690Z,5.03
2023-04-02T05:49:47.378Z,9.73
2023-04-02T05:52:23.772Z,6.10
2023-04-02T05:55:13.270Z,5.07
2023-04-02T05:57:59.070Z,4.93
2023-04-02T06:00:39.583Z,5.40
2023-04-02T06:03:27.248Z,6.30
2023-04-02T06:06:01.102Z,5.13
2023-04-02T06:08:40.926Z,5.40
2023-04-02T06:11:18.988Z,5.07
2023-04-02T06:13:46.424Z,6.40
2023-04-02T06:16:16.111Z,5.00
2023-04-02T06:18:44.242Z,5.17
2023-04-02T06:21:16.686Z,5.07
2023-04-02T06:23:56.782Z,3.83
2023-04-02T06:26:37.036Z,5.67
2023-04-02T06:29:31.250Z,5.00
2023-04-02T06:32:02.149Z,5.43
2023-04-02T06:34:31.749Z,6.63
2023-04-02T06:37:30.404Z,7.50
2023-04-02T06:40:24.634Z,6.90
2023-04-02T06:42:59.734Z,7.37
2023-04-02T06:45:41.993Z,8.33
2023-04-02T06:48:35.900Z,9.53
2023-04-02T06:51:12.942Z,6.43
2023-04-02T06:53:46.057Z,7.07
2023-04-02T06:56:37.239Z,7.13
2023-04-02T06:59:07.432Z,7.23
2023-04-02T07:01:43.153Z,9.30
2023-04-02T07:04:11.768Z,7.93
2023-04-02T07:06:43.073Z,9.57
2023-04-02T07:09:12.339Z,10.50
2023-04-02T07:11:43.289Z,9.80
2023-04-02T07:14:13.050Z,8.37
2023-04-02T07:16:42.205Z,11.00
2023-04-02T07:19:17.576Z,7.10
2023-04-02T07:21:44.968Z,8.43
2023-04-02T07:24:13.033Z,12.93
2023-04-02T07:26:41.205Z,11.90
2023-04-02T07:29:13.331Z,10.30
2023-04-02T07:31:40.815Z,6.40
2023-04-02T07:34:08.201Z,6.50
2023-04-02T07:36:35.850Z,5.90
2023-04-02T07:39:03.964Z,8.73
2023-04-02T07:41:31.375Z,9.33
2023-04-02T07:43:58.660Z,8.50
2023-04-02T07:46:26.443Z,5.80
2023-04-02T07:48:53.784Z,8.87
2023-04-02T07:51:23.687Z,6.80
2023-04-02T07:53:55.689Z,8.97
2023-04-02T07:56:24.642Z,9.07
2023-04-02T07:58:52.161Z,6.60
2023-04-02T08:01:25.661Z,8.60
2023-04-02T08:03:54.858Z,7.60
2023-04-02T08:06:25.100Z,5.70
2023-04-02T08:08:52.742Z,6.10
2023-04-02T08:11:20.452Z,8.70
2023-04-02T08:13:47.969Z,9.30
2023-04-02T08:16:16.083Z,8.53
2023-04-02T08:18:43.370Z,8.13
2023-04-02T08:21:11.065Z,7.77
2023-04-02T08:23:38.847Z,7.53
2023-04-02T08:26:06.881Z,8.03
2023-04-02T08:28:34.744Z,11.10
2023-04-02T08:31:02.530Z,10.67
2023-04-02T08:33:29.813Z,13.53
2023-04-02T08:35:57.232Z,17.20
2023-04-02T08:38:27.881Z,11.60
2023-04-02T08:40:59.242Z,8.37
2023-04-02T08:43:28.726Z,9.67
2023-04-02T08:46:02.079Z,11.90
2023-04-02T08:48:32.670Z,10.87
2023-04-02T08:51:01.825Z,10.47
2023-04-02T08:53:33.950Z,10.50
2023-04-02T08:56:17.814Z,10.90
2023-04-02T08:58:50.731Z,8.03
2023-04-02T09:01:32.818Z,6.60
2023-04-02T09:04:00.653Z,10.77
2023-04-02T09:06:29.191Z,9.73
2023-04-02T09:08:58.297Z,10.73
2023-04-02T09:11:41.774Z,9.80
2023-04-02T09:14:18.555Z,8.70
2023-04-02T09:16:56.123Z,8.93
2023-04-02T09:19:31.351Z,7.13
2023-04-02T09:22:22.760Z,8.60
2023-04-02T09:25:01.132Z,6.97
2023-04-02T09:27:32.400Z,9.40
2023-04-02T09:30:40.764Z,8.43
2023-04-02T09:33:09.079Z,8.53
2023-04-02T09:35:54.360Z,7.30
2023-04-02T09:38:31.404Z,6.33
2023-04-02T09:41:03.584Z,6.57
2023-04-02T09:43:38.880Z,10.83
2023-04-02T09:46:24.411Z,7.03
2023-04-02T09:49:00.787Z,5.77
2023-04-02T09:51:31.820Z,5.73
2023-04-02T09:54:12.852Z,7.10
2023-04-02T09:56:41.060Z,6.87
2023-04-02T09:59:17.201Z,6.87
2023-04-02T10:02:03.164Z,8.67
2023-04-02T10:04:48.385Z,10.77
2023-04-02T10:07:39.204Z,9.20
2023-04-02T10:10:18.646Z,8.93
2023-04-02T10:13:10.461Z,7.03
2023-04-02T10:16:16.422Z,9.93
2023-04-02T10:18:51.768Z,7.27
2023-04-02T10:21:25.148Z,8.33
2023-04-02T10:23:52.442Z,8.67
2023-04-02T10:26:46.708Z,8.93
2023-04-02T10:29:44.447Z,10.97
2023-04-02T10:32:32.036Z,6.90
2023-04-02T10:35:17.156Z,7.70
2023-04-02T10:37:47.250Z,7.67
2023-04-02T10:40:14.488Z,13.07
2023-04-02T10:42:41.944Z,8.77
2023-04-02T10:45:27.925Z,8.83
2023-04-02T10:48:10.090Z,7.27
2023-04-02T10:50:50.178Z,7.83
2023-04-02T10:53:27.477Z,7.45
2023-04-02T10:56:03.345Z,5.33
2023-04-02T10:58:34.770Z,10.50
2023-04-02T11:01:09.442Z,6.47
2023-04-02T11:03:43.348Z,6.07
2023-04-02T11:06:20.630Z,6.77
2023-04-02T11:08:50.795Z,5.10
2023-04-02T11:11:22.639Z,5.82
2023-04-02T11:14:20.306Z,4.85
2023-04-02T11:16:50.163Z,6.00
2023-04-02T11:19:17.485Z,7.53
2023-04-02T11:21:58.719Z,4.83
2023-04-02T11:24:33.542Z,6.30
2023-04-02T11:27:10.357Z,8.50
2023-04-02T11:29:51.489Z,5.00
2023-04-02T11:32:21.854Z,6.57
2023-04-02T11:34:59.831Z,6.03
2023-04-02T11:37:45.113Z,8.95
2023-04-02T11:40:13.644Z,5.55
2023-04-02T11:42:43.651Z,7.30
2023-04-02T11:45:23.236Z,7.80
2023-04-02T11:47:59.783Z,7.25
2023-04-02T11:50:45.288Z,10.13
2023-04-02T11:53:13.223Z,12.40
2023-04-02T11:55:42.387Z,6.57
2023-04-02T11:58:45.996Z,11.20
2023-04-02T12:01:49.736Z,8.38
2023-04-02T12:04:29.155Z,7.72
2023-04-02T12:07:26.776Z,6.22
2023-04-02T12:10:00.740Z,8.55
2023-04-02T12:12:34.457Z,7.57
2023-04-02T12:15:01.957Z,6.05
2023-04-02T12:17:39.916Z,6.47
2023-04-02T12:20:09.174Z,7.70
2023-04-02T12:22:39.779Z,5.75
2023-04-02T12:25:21.985Z,5.30
2023-04-02T12:28:04.129Z,5.25
2023-04-02T12:30:31.505Z,5.05
2023-04-02T12:33:20.267Z,5.15
2023-04-02T12:35:50.625Z,9.90
2023-04-02T12:38:27.392Z,6.43
2023-04-02T12:40:57.826Z,8.00
2023-04-02T12:43:30.755Z,6.72
2023-04-02T12:46:04.469Z,5.88
2023-04-02T12:48:32.332Z,8.60
2023-04-02T12:51:01.271Z,8.40
2023-04-02T12:53:37.708Z,4.95
2023-04-02T12:56:05.849Z,5.57
2023-04-02T12:58:37.187Z,7.53
2023-04-02T13:01:20.343Z,7.10
2023-04-02T13:04:08.846Z,7.78
2023-04-02T13:06:36.777Z,6.00
2023-04-02T13:09:07.770Z,5.78
2023-04-02T13:11:40.331Z,5.38
2023-04-02T13:14:18.137Z,8.20
2023-04-02T13:16:46.160Z,5.20
2023-04-02T13:19:25.084Z,6.30
2023-04-02T13:21:53.424Z,5.55
2023-04-02T13:24:23.008Z,8.82
2023-04-02T13:26:53.533Z,6.03
2023-04-02T13:29:25.502Z,4.90
2023-04-02T13:31:58.841Z,6.72
2023-04-02T13:34:26.624Z,5.35
2023-04-02T13:36:54.613Z,6.43
2023-04-02T13:39:21.865Z,5.43
2023-04-02T13:42:01.713Z,4.88
2023-04-02T13:44:31.587Z,5.95
2023-04-02T13:46:59.832Z,5.95
2023-04-02T13:49:28.160Z,7.78
2023-04-02T13:52:04.230Z,6.18
2023-04-02T13:54:52.996Z,4.93
2023-04-02T13:57:29.162Z,7.43
2023-04-02T13:59:56.474Z,5.05
2023-04-02T14:02:25.526Z,6.88
2023-04-02T14:05:18.885Z,5.13
2023-04-02T14:08:04.246Z,5.63
2023-04-02T14:10:39.670Z,5.30
2023-04-02T14:13:16.101Z,3.95
2023-04-02T14:16:08.755Z,4.72
2023-04-02T14:19:10.298Z,5.70
2023-04-02T14:21:43.669Z,4.75
2023-04-02T14:24:18.639Z,3.65
2023-04-02T14:27:05.816Z,5.15
2023-04-02T14:29:41.426Z,4.85
2023-04-02T14:32:23.251Z,2.50
2023-04-02T14:35:27.292Z,3.78
2023-04-02T14:38:16.374Z,4.25
2023-04-02T14:40:59.878Z,3.08
2023-04-02T14:43:36.848Z,7.85
2023-04-02T14:46:07.220Z,4.53
2023-04-02T14:48:47.894Z,4.03
2023-04-02T14:51:30.261Z,3.63
2023-04-02T14:54:12.655Z,3.10
2023-04-02T14:56:50.190Z,7.53
2023-04-02T14:59:34.207Z,3.85
2023-04-02T15:02:16.597Z,3.25
2023-04-02T15:04:49.217Z,3.00
2023-04-02T15:07:24.117Z,6.00
2023-04-02T15:10:03.362Z,3.45
2023-04-02T15:12:35.884Z,6.67
2023-04-02T15:15:42.922Z,4.30
2023-04-02T15:18:15.452Z,5.50
2023-04-02T15:20:48.720Z,4.30
2023-04-02T15:23:51.572Z,5.27
2023-04-02T15:26:35.975Z,6.33
2023-04-02T15:29:29.368Z,5.32
2023-04-02T15:32:12.256Z,10.13
2023-04-02T15:34:48.761Z,8.30
2023-04-02T15:37:26.682Z,4.93
2023-04-02T15:40:03.076Z,5.50
2023-04-02T15:42:39.636Z,5.80
2023-04-02T15:45:29.202Z,4.43
2023-04-02T15:48:15.094Z,5.37
2023-04-02T15:50:58.568Z,6.55
2023-04-02T15:54:06.586Z,4.33
2023-04-02T15:56:52.449Z,5.50
2023-04-02T15:59:49.189Z,4.13
2023-04-02T16:02:54.009Z,3.70
2023-04-02T16:05:44.262Z,6.17
2023-04-02T16:08:29.951Z,5.93
2023-04-02T16:10:57.466Z,4.43
2023-04-02T16:13:34.289Z,3.90
2023-04-02T16:16:07.933Z,4.80
2023-04-02T16:19:02.525Z,3.47
2023-04-02T16:21:34.401Z,4.27
2023-04-02T16:24:01.803Z,4.40
2023-04-02T16:26:43.735Z,4.17
2023-04-02T16:29:25.745Z,5.07
2023-04-02T16:32:21.175Z,3.10
2023-04-02T16:35:41.071Z,4.57
2023-04-02T16:38:41.327Z,5.33
2023-04-02T16:41:14.383Z,6.27
2023-04-02T16:44:01.963Z,3.90
2023-04-02T16:46:40.256Z,4.50
2023-04-02T16:49:26.801Z,3.63
2023-04-02T16:52:23.149Z,2.73
2023-04-02T16:55:19.568Z,4.00
2023-04-02T16:58:14.080Z,5.40
2023-04-02T17:00:56.075Z,2.50
2023-04-02T17:03:40.258Z,3.80
2023-04-02T17:06:28.903Z,6.03
2023-04-02T17:09:14.647Z,3.77
2023-04-02T17:11:49.770Z,4.63
2023-04-02T17:14:48.313Z,3.10
2023-04-02T17:17:17.254Z,6.80
2023-04-02T17:19:44.898Z,3.10
2023-04-02T17:22:19.333Z,3.63
2023-04-02T17:25:01.593Z,4.97
2023-04-02T17:27:37.439Z,3.47
2023-04-02T17:30:25.516Z,4.23
2023-04-02T17:32:52.834Z,2.10
2023-04-02T17:35:45.325Z,4.17
2023-04-02T17:38:26.565Z,3.33
2023-04-02T17:41:05.077Z,2.57
2023-04-02T17:43:46.357Z,5.50
2023-04-02T17:46:34.331Z,3.13
2023-04-02T17:49:10.905Z,2.73
2023-04-02T17:51:48.621Z,4.10
2023-04-02T17:54:42.660Z,2.80
2023-04-02T17:57:19.142Z,4.30
2023-04-02T18:00:01.572Z,2.07
2023-04-02T18:03:06.106Z,4.27
2023-04-02T18:05:44.827Z,3.03
2023-04-02T18:08:34.073Z,5.27
2023-04-02T18:11:13.683Z,2.03
2023-04-02T18:13:58.266Z,2.07
2023-04-02T18:16:45.650Z,3.23
2023-04-02T18:19:41.090Z,1.73
2023-04-02T18:22:21.681Z,3.67
2023-04-02T18:25:25.065Z,3.77
2023-04-02T18:28:04.485Z,5.73
2023-04-02T18:30:46.864Z,4.50
2023-04-02T18:33:33.021Z,4.77
2023-04-02T18:36:19.062Z,3.83
2023-04-02T18:39:14.613Z,2.47
2023-04-02T18:42:08.568Z,3.77
2023-04-02T18:45:02.758Z,3.53
2023-04-02T18:47:53.204Z,5.13
2023-04-02T18:50:31.769Z,5.07
2023-04-02T18:53:08.626Z,3.93
2023-04-02T18:55:36.391Z,2.93
2023-04-02T18:58:17.931Z,3.50
2023-04-02T19:00:46.364Z,3.43
2023-04-02T19:03:22.923Z,6.73
2023-04-02T19:06:06.004Z,3.90
2023-04-02T19:08:40.413Z,2.90
2023-04-02T19:11:18.060Z,3.43
2023-04-02T19:13:45.646Z,8.43
2023-04-02T19:16:25.355Z,4.23
2023-04-02T19:19:00.295Z,6.97
2023-04-02T19:21:42.685Z,3.40
2023-04-02T19:24:34.126Z,5.00
2023-04-02T19:27:26.126Z,5.17
2023-04-02T19:30:31.092Z,3.60
2023-04-02T19:33:08.637Z,3.50
2023-04-02T19:35:39.977Z,3.20
2023-04-02T19:38:45.036Z,4.00
2023-04-02T19:41:52.259Z,3.80
2023-04-02T19:44:20.999Z,3.27
2023-04-02T19:46:48.871Z,4.67
2023-04-02T19:49:30.644Z,3.10
2023-04-02T19:51:58.166Z,5.73
2023-04-02T19:54:25.464Z,3.03
2023-04-02T19:56:52.770Z,7.30
2023-04-02T19:59:20.371Z,2.70
2023-04-02T20:01:47.908Z,3.43
2023-04-02T20:04:15.439Z,2.47
2023-04-02T20:06:42.749Z,4.90
2023-04-02T20:09:10.129Z,3.83
2023-04-02T20:11:38.768Z,2.80
2023-04-02T20:14:06.303Z,2.47
2023-04-02T20:16:34.463Z,6.63
2023-04-02T20:19:01.951Z,3.37
2023-04-02T20:21:34.550Z,3.13
2023-04-02T20:24:01.878Z,2.77
2023-04-02T20:26:29.978Z,5.47
2023-04-02T20:28:57.323Z,5.47
2023-04-02T20:31:24.628Z,3.67
2023-04-02T20:33:59.135Z,2.60
2023-04-02T20:36:26.644Z,3.23
2023-04-02T20:38:53.953Z,4.40
2023-04-02T20:41:21.917Z,4.50
2023-04-02T20:43:50.036Z,5.10
2023-04-02T20:46:17.503Z,2.50
2023-04-02T20:48:45.187Z,7.27
2023-04-02T20:51:15.316Z,3.80
2023-04-02T20:53:43.005Z,3.60
2023-04-02T20:56:15.510Z,4.13
2023-04-02T20:58:43.811Z,4.73
2023-04-02T21:01:16.095Z,3.80
2023-04-02T21:03:43.778Z,3.70
2023-04-02T21:06:16.821Z,2.00
2023-04-02T21:08:44.267Z,3.80
2023-04-02T21:11:12.056Z,5.03
2023-04-02T21:13:41.785Z,1.70
2023-04-02T21:16:29.730Z,1.80
2023-04-02T21:18:58.624Z,4.63
2023-04-02T21:21:26.253Z,2.57
2023-04-02T21:24:01.943Z,2.83
2023-04-02T21:26:33.336Z,2.40
2023-04-02T21:29:02.400Z,2.77
2023-04-02T21:31:33.498Z,4.97
2023-04-02T21:34:00.899Z,3.53
2023-04-02T21:36:31.110Z,3.30
2023-04-02T21:39:04.466Z,3.27
2023-04-02T21:41:34.216Z,4.87
2023-04-02T21:44:03.883Z,2.90
2023-04-02T21:46:35.982Z,2.37
2023-04-02T21:49:03.400Z,2.47
2023-04-02T21:51:33.718Z,3.57
2023-04-02T21:54:01.648Z,4.40
2023-04-02T21:56:31.470Z,4.97
2023-04-02T21:59:01.784Z,3.53
2023-04-02T22:01:32.255Z,5.27
2023-04-02T22:04:02.526Z,2.97
2023-04-02T22:06:32.003Z,3.43
2023-04-02T22:09:01.544Z,2.80
2023-04-02T22:11:31.786Z,4.00
2023-04-02T22:13:59.490Z,5.40
2023-04-02T22:16:29.014Z,2.97
2023-04-02T22:18:58.533Z,5.03
2023-04-02T22:21:26.308Z,5.87
2023-04-02T22:23:53.751Z,4.43
2023-04-02T22:26:22.959Z,3.63
2023-04-02T22:28:52.594Z,3.33
2023-04-02T22:31:23.476Z,2.80
2023-04-02T22:33:51.865Z,3.53
2023-04-02T22:36:20.733Z,3.33
2023-04-02T22:38:48.808Z,1.87
2023-04-02T22:41:18.568Z,3.37
2023-04-02T22:43:46.301Z,2.53
2023-04-02T22:46:15.821Z,3.03
2023-04-02T22:48:44.561Z,3.03
2023-04-02T22:51:14.273Z,3.00
2023-04-02T22:53:42.937Z,3.67
2023-04-02T22:56:16.365Z,4.13
2023-04-02T22:58:44.492Z,4.40
2023-04-02T23:01:23.934Z,5.10
2023-04-02T23:03:53.951Z,6.67
2023-04-02T23:06:22.159Z,3.80
2023-04-02T23:08:49.444Z,4.37
2023-04-02T23:11:22.749Z,4.37
2023-04-02T23:13:52.322Z,5.97
2023-04-02T23:16:19.930Z,3.60
2023-04-02T23:18:48.430Z,3.43
2023-04-02T23:21:17.402Z,3.20
2023-04-02T23:23:45.312Z,6.63
2023-04-02T23:26:18.570Z,5.07
2023-04-02T23:28:46.158Z,4.73
2023-04-02T23:31:16.752Z,5.73
2023-04-02T23:33:44.153Z,4.77
2023-04-02T23:36:16.743Z,5.73
2023-04-02T23:38:44.150Z,7.10
2023-04-02T23:41:18.144Z,5.33
2023-04-02T23:43:45.762Z,4.43
2023-04-02T23:46:13.200Z,6.73
2023-04-02T23:48:40.614Z,5.67
2023-04-02T23:51:07.896Z,5.07
2023-04-02T23:53:35.585Z,4.57
2023-04-02T23:56:03.177Z,5.43
2023-04-02T23:58:30.564Z,3.47
